Main page
METAR-TAF:

METAR-TAF

Airports :

Mendoza, Argentina

Governor Francisco Gabrielli International Airport

latitude: 32-50S, longitude: 068-47W, elevation: 705 m

Current weather observation

The report was made 21 minutes ago, at 00:00 UTC
Wind 5 kt from the Southwest
Temperature 25°C
Humidity 28%
Pressure 1006 hPa
Visibility 10 km or more
no clouds below 1500 m and no cumulonimbus

METAR: SAME 200000Z 23005KT CAVOK 25/05 Q1006

Time: 21:21 (00:21 UTC)

Forecast

The report was made 1 hour and 21 minutes ago, at 23:00 UTC
Forecast valid from 20 at 00 UTC to 20 at 24 UTC
Wind 5 kt from the Northeast
Visibility 10 km or more
Few clouds at a height of 4000 ft
Becoming
from 20 at 10 UTC to 20 at 12 UTC
Wind 20 kt from the South
Visibility 10 km or more
Scattered clouds at a height of 3000 ft
Scattered clouds at a height of 8000 ft
in the vicinity, drizzle

TAF: SAME 192300Z 2000/2024 05005KT 9999 FEW040 TX19/2020Z TN12/2010Z BECMG 2010/2012 18020KT 9999 VCDZ SCT030 SCT080

Weather observations and forecasts of more than 4000 airports (METAR and TAF reports).

The available stations are represented by yellow and red dots on the map.

Hover mouse over dot to see the name of the station.

Then click to see weather observations and forecasts.

To change the map : click on the green buttons with a black cross to zoom in, on the green button with a dash to zoom out, or on the green arrows for adjacent maps.


METAR-TAF: